Time,TemperatureF,DewpointF,PressureIn,WindDirection,WindDirectionDegrees,WindSpeedMPH,WindSpeedGustMPH,Humidity,HourlyPrecipIn,Conditions,Clouds,dailyrainin,SolarRadiationWatts/m^2,SoftwareType,DateUTC
2013-02-27 00:01:00,39.0,38.0,-100.00,West,281,1.0,6.0,96,0.04,,,0.04,36.000000,,2013-02-27 08:01:00,
2013-02-27 00:11:00,39.0,38.0,-100.00,West,281,1.0,6.0,96,0.04,,,0.04,36.000000,,2013-02-27 08:11:00,
2013-02-27 00:21:00,39.0,38.0,-100.00,West,281,1.0,6.0,96,0.04,,,0.04,36.000000,,2013-02-27 08:21:00,
2013-02-27 00:31:00,39.0,38.0,-100.00,West,281,1.0,6.0,96,0.04,,,0.04,36.000000,,2013-02-27 08:31:00,
2013-02-27 01:01:00,36.0,36.0,-100.00,SSW,198,0.0,4.0,99,0.00,,,0.04,38.000000,,2013-02-27 09:01:00,
2013-02-27 01:11:00,36.0,36.0,-100.00,SSW,198,0.0,4.0,99,0.00,,,0.04,38.000000,,2013-02-27 09:11:00,
2013-02-27 01:21:00,36.0,36.0,-100.00,SSW,198,0.0,4.0,99,0.00,,,0.04,38.000000,,2013-02-27 09:21:00,
2013-02-27 01:31:00,36.0,36.0,-100.00,SSW,198,0.0,4.0,99,0.00,,,0.04,38.000000,,2013-02-27 09:31:00,
2013-02-27 01:52:00,35.0,35.0,-100.00,NE,53,0.0,2.0,100,0.00,,,0.04,39.000000,,2013-02-27 09:52:00,
2013-02-27 02:01:00,35.0,35.0,-100.00,NE,53,0.0,2.0,100,0.00,,,0.04,39.000000,,2013-02-27 10:01:00,
2013-02-27 02:12:00,35.0,35.0,-100.00,NE,53,0.0,2.0,100,0.00,,,0.04,39.000000,,2013-02-27 10:12:00,
2013-02-27 02:21:00,35.0,35.0,-100.00,NE,53,0.0,2.0,100,0.00,,,0.04,39.000000,,2013-02-27 10:21:00,
2013-02-27 02:31:00,35.0,35.0,-100.00,NE,53,0.0,2.0,100,0.00,,,0.04,39.000000,,2013-02-27 10:31:00,
2013-02-27 03:01:00,37.0,37.0,-100.00,South,176,2.0,3.0,100,0.00,,,0.04,39.000000,,2013-02-27 11:01:00,
2013-02-27 03:12:00,37.0,37.0,-100.00,South,176,2.0,3.0,100,0.00,,,0.04,39.000000,,2013-02-27 11:12:00,
2013-02-27 03:22:00,37.0,37.0,-100.00,South,176,2.0,3.0,100,0.00,,,0.04,39.000000,,2013-02-27 11:22:00,
2013-02-27 03:31:00,37.0,37.0,-100.00,South,176,2.0,3.0,100,0.00,,,0.04,39.000000,,2013-02-27 11:31:00,
2013-02-27 03:52:00,36.0,36.0,-100.00,South,172,1.0,4.0,100,0.00,,,0.04,39.000000,,2013-02-27 11:52:00,
2013-02-27 04:02:00,36.0,36.0,-100.00,South,172,1.0,4.0,100,0.00,,,0.04,39.000000,,2013-02-27 12:02:00,
2013-02-27 04:12:00,36.0,36.0,-100.00,South,172,1.0,4.0,100,0.00,,,0.04,39.000000,,2013-02-27 12:12:00,
2013-02-27 04:22:00,36.0,36.0,-100.00,South,172,1.0,4.0,100,0.00,,,0.04,39.000000,,2013-02-27 12:22:00,
2013-02-27 04:32:00,36.0,36.0,-100.00,South,172,1.0,4.0,100,0.00,,,0.04,39.000000,,2013-02-27 12:32:00,
2013-02-27 05:02:00,36.0,36.0,-100.00,SSW,202,0.0,3.0,100,0.00,,,0.04,39.000000,,2013-02-27 13:02:00,
2013-02-27 05:11:00,36.0,36.0,-100.00,SSW,202,0.0,3.0,100,0.00,,,0.04,39.000000,,2013-02-27 13:11:00,
2013-02-27 05:21:00,36.0,36.0,-100.00,SSW,202,0.0,3.0,100,0.00,,,0.04,39.000000,,2013-02-27 13:21:00,
2013-02-27 05:31:00,36.0,36.0,-100.00,SSW,202,0.0,3.0,100,0.00,,,0.04,39.000000,,2013-02-27 13:31:00,
2013-02-27 06:02:00,37.0,37.0,-100.00,ENE,68,0.0,2.0,100,0.00,,,0.04,39.000000,,2013-02-27 14:02:00,
2013-02-27 06:11:00,37.0,37.0,-100.00,ENE,68,0.0,2.0,100,0.00,,,0.04,39.000000,,2013-02-27 14:11:00,
2013-02-27 06:21:00,37.0,37.0,-100.00,ENE,68,0.0,2.0,100,0.00,,,0.04,39.000000,,2013-02-27 14:21:00,
2013-02-27 06:31:00,37.0,37.0,-100.00,ENE,68,0.0,2.0,100,0.00,,,0.04,39.000000,,2013-02-27 14:31:00,
2013-02-27 07:02:00,36.0,36.0,-100.00,SSW,194,0.0,1.0,100,0.00,,,0.04,39.000000,,2013-02-27 15:02:00,
2013-02-27 07:12:00,36.0,36.0,-100.00,SSW,194,0.0,1.0,100,0.00,,,0.04,39.000000,,2013-02-27 15:12:00,
2013-02-27 07:22:00,36.0,36.0,-100.00,SSW,194,0.0,1.0,100,0.00,,,0.04,39.000000,,2013-02-27 15:22:00,
2013-02-27 07:32:00,36.0,36.0,-100.00,SSW,194,0.0,1.0,100,0.00,,,0.04,39.000000,,2013-02-27 15:32:00,
2013-02-27 08:01:00,37.0,37.0,-100.00,SSE,158,0.0,2.0,100,0.00,,,0.04,39.000000,,2013-02-27 16:01:00,
2013-02-27 08:11:00,37.0,37.0,-100.00,SSE,158,0.0,2.0,100,0.00,,,0.04,39.000000,,2013-02-27 16:11:00,
2013-02-27 08:21:00,37.0,37.0,-100.00,SSE,158,0.0,2.0,100,0.00,,,0.04,39.000000,,2013-02-27 16:21:00,
2013-02-27 08:32:00,37.0,37.0,-100.00,SSE,158,0.0,2.0,100,0.00,,,0.04,39.000000,,2013-02-27 16:32:00,
2013-02-27 09:01:00,39.0,39.0,-100.00,North,10,0.0,2.0,99,0.00,,,0.04,39.000000,,2013-02-27 17:01:00,
2013-02-27 09:11:00,39.0,39.0,-100.00,North,10,0.0,2.0,99,0.00,,,0.04,39.000000,,2013-02-27 17:11:00,
2013-02-27 09:21:00,39.0,39.0,-100.00,North,10,0.0,2.0,99,0.00,,,0.04,39.000000,,2013-02-27 17:21:00,
2013-02-27 09:32:00,39.0,39.0,-100.00,North,10,0.0,2.0,99,0.00,,,0.04,39.000000,,2013-02-27 17:32:00,
2013-02-27 10:01:00,43.0,38.0,-100.00,SSW,209,1.0,4.0,81,0.00,,,0.04,35.000000,,2013-02-27 18:01:00,
2013-02-27 10:11:00,43.0,38.0,-100.00,SSW,209,1.0,4.0,81,0.00,,,0.04,35.000000,,2013-02-27 18:11:00,
2013-02-27 10:22:00,43.0,38.0,-100.00,SSW,209,1.0,4.0,81,0.00,,,0.04,35.000000,,2013-02-27 18:22:00,
2013-02-27 10:31:00,43.0,38.0,-100.00,SSW,209,1.0,4.0,81,0.00,,,0.04,35.000000,,2013-02-27 18:31:00,
2013-02-27 11:01:00,45.0,38.0,-100.00,SSW,192,1.0,5.0,77,0.00,,,-99.99,31.000000,,2013-02-27 19:01:00,
2013-02-27 11:11:00,45.0,38.0,-100.00,SSW,192,1.0,5.0,77,0.00,,,-99.99,31.000000,,2013-02-27 19:11:00,
2013-02-27 11:21:00,45.0,38.0,-100.00,SSW,192,1.0,5.0,77,0.00,,,-99.99,31.000000,,2013-02-27 19:21:00,
2013-02-27 11:32:00,45.0,38.0,-100.00,SSW,192,1.0,5.0,77,0.00,,,-99.99,31.000000,,2013-02-27 19:32:00,
2013-02-27 12:01:00,44.0,37.0,-100.00,NW,311,2.0,6.0,75,0.00,,,0.04,28.000000,,2013-02-27 20:01:00,
2013-02-27 12:11:00,44.0,37.0,-100.00,NW,311,2.0,6.0,75,0.00,,,0.04,28.000000,,2013-02-27 20:11:00,
2013-02-27 12:21:00,44.0,37.0,-100.00,NW,311,2.0,6.0,75,0.00,,,0.04,28.000000,,2013-02-27 20:21:00,
2013-02-27 12:31:00,44.0,37.0,-100.00,NW,311,2.0,6.0,75,0.00,,,0.04,28.000000,,2013-02-27 20:31:00,
2013-02-27 13:01:00,45.0,35.0,-100.00,NW,318,3.0,6.0,68,0.00,,,-99.99,26.000000,,2013-02-27 21:01:00,
2013-02-27 13:11:00,45.0,35.0,-100.00,NW,318,3.0,6.0,68,0.00,,,-99.99,26.000000,,2013-02-27 21:11:00,
2013-02-27 13:21:00,45.0,35.0,-100.00,NW,318,3.0,6.0,68,0.00,,,-99.99,26.000000,,2013-02-27 21:21:00,
2013-02-27 13:31:00,45.0,35.0,-100.00,NW,318,3.0,6.0,68,0.00,,,-99.99,26.000000,,2013-02-27 21:31:00,
2013-02-27 14:01:00,45.0,36.0,-100.00,NW,313,2.0,7.0,70,0.00,,,-99.99,24.000000,,2013-02-27 22:01:00,
2013-02-27 14:11:00,45.0,36.0,-100.00,NW,313,2.0,7.0,70,0.00,,,-99.99,24.000000,,2013-02-27 22:11:00,
2013-02-27 14:21:00,45.0,36.0,-100.00,NW,313,2.0,7.0,70,0.00,,,-99.99,24.000000,,2013-02-27 22:21:00,
2013-02-27 14:31:00,45.0,36.0,-100.00,NW,313,2.0,7.0,70,0.00,,,-99.99,24.000000,,2013-02-27 22:31:00,
2013-02-27 15:01:00,44.0,35.0,-100.00,South,188,0.0,3.0,71,0.00,,,-99.99,23.000000,,2013-02-27 23:01:00,
2013-02-27 15:11:00,44.0,35.0,-100.00,South,188,0.0,3.0,71,0.00,,,-99.99,23.000000,,2013-02-27 23:11:00,
2013-02-27 15:21:00,44.0,35.0,-100.00,South,188,0.0,3.0,71,0.00,,,-99.99,23.000000,,2013-02-27 23:21:00,
2013-02-27 15:31:00,44.0,35.0,-100.00,South,188,0.0,3.0,71,0.00,,,-99.99,23.000000,,2013-02-27 23:31:00,
2013-02-27 16:01:00,44.0,37.0,-100.00,NW,310,0.0,2.0,76,0.00,,,0.04,23.000000,,2013-02-28 00:01:00,
2013-02-27 16:11:00,44.0,37.0,-100.00,NW,310,0.0,2.0,76,0.00,,,0.04,23.000000,,2013-02-28 00:11:00,
2013-02-27 16:21:00,44.0,37.0,-100.00,NW,310,0.0,2.0,76,0.00,,,0.04,23.000000,,2013-02-28 00:21:00,
2013-02-27 16:31:00,44.0,37.0,-100.00,NW,310,0.0,2.0,76,0.00,,,0.04,23.000000,,2013-02-28 00:31:00,
2013-02-27 17:01:00,43.0,38.0,-100.00,NE,41,0.0,2.0,81,0.00,,,0.04,23.000000,,2013-02-28 01:01:00,
2013-02-27 17:11:00,43.0,38.0,-100.00,NE,41,0.0,2.0,81,0.00,,,0.04,23.000000,,2013-02-28 01:11:00,
2013-02-27 17:21:00,43.0,38.0,-100.00,NE,41,0.0,2.0,81,0.00,,,0.04,23.000000,,2013-02-28 01:21:00,
2013-02-27 17:31:00,43.0,38.0,-100.00,NE,41,0.0,2.0,81,0.00,,,0.04,23.000000,,2013-02-28 01:31:00,
2013-02-27 18:01:00,42.0,38.0,-100.00,North,0,0.0,2.0,84,0.00,,,0.04,23.000000,,2013-02-28 02:01:00,
2013-02-27 18:11:00,42.0,38.0,-100.00,North,0,0.0,2.0,84,0.00,,,0.04,23.000000,,2013-02-28 02:11:00,
2013-02-27 18:22:00,42.0,38.0,-100.00,North,0,0.0,2.0,84,0.00,,,0.04,23.000000,,2013-02-28 02:22:00,
2013-02-27 18:31:00,42.0,38.0,-100.00,North,0,0.0,2.0,84,0.00,,,0.04,23.000000,,2013-02-28 02:31:00,
2013-02-27 19:01:00,41.0,39.0,-100.00,ESE,108,0.0,3.0,91,0.00,,,0.04,24.000000,,2013-02-28 03:01:00,
2013-02-27 19:11:00,41.0,39.0,-100.00,ESE,108,0.0,3.0,91,0.00,,,0.04,24.000000,,2013-02-28 03:11:00,
2013-02-27 19:21:00,41.0,39.0,-100.00,ESE,108,0.0,3.0,91,0.00,,,0.04,24.000000,,2013-02-28 03:21:00,
2013-02-27 19:31:00,41.0,39.0,-100.00,ESE,108,0.0,3.0,91,0.00,,,0.04,24.000000,,2013-02-28 03:31:00,
2013-02-27 20:01:00,38.0,36.0,-100.00,NE,49,1.0,2.0,94,0.00,,,0.04,25.000000,,2013-02-28 04:01:00,
2013-02-27 20:11:00,38.0,36.0,-100.00,NE,49,1.0,2.0,94,0.00,,,0.04,25.000000,,2013-02-28 04:11:00,
2013-02-27 20:21:00,38.0,36.0,-100.00,NE,49,1.0,2.0,94,0.00,,,0.04,25.000000,,2013-02-28 04:21:00,
2013-02-27 20:31:00,38.0,36.0,-100.00,NE,49,1.0,2.0,94,0.00,,,0.04,25.000000,,2013-02-28 04:31:00,
2013-02-27 21:01:00,38.0,36.0,-100.00,NNE,29,0.0,2.0,91,0.00,,,0.04,26.000000,,2013-02-28 05:01:00,
2013-02-27 21:11:00,38.0,36.0,-100.00,NNE,29,0.0,2.0,91,0.00,,,0.04,26.000000,,2013-02-28 05:11:00,
2013-02-27 21:22:00,38.0,36.0,-100.00,NNE,29,0.0,2.0,91,0.00,,,0.04,26.000000,,2013-02-28 05:22:00,
2013-02-27 21:31:00,38.0,36.0,-100.00,NNE,29,0.0,2.0,91,0.00,,,0.04,26.000000,,2013-02-28 05:31:00,
2013-02-27 22:01:00,37.0,36.0,-100.00,NNE,24,0.0,3.0,96,0.00,,,0.04,26.000000,,2013-02-28 06:01:00,
2013-02-27 22:11:00,37.0,36.0,-100.00,NNE,24,0.0,3.0,96,0.00,,,0.04,26.000000,,2013-02-28 06:11:00,
2013-02-27 22:22:00,37.0,36.0,-100.00,NNE,24,0.0,3.0,96,0.00,,,0.04,26.000000,,2013-02-28 06:22:00,
2013-02-27 22:32:00,37.0,36.0,-100.00,NNE,24,0.0,3.0,96,0.00,,,0.04,26.000000,,2013-02-28 06:32:00,
2013-02-27 23:01:00,37.0,36.0,-100.00,NNE,15,0.0,2.0,96,0.00,,,0.04,26.000000,,2013-02-28 07:01:00,
2013-02-27 23:11:00,37.0,36.0,-100.00,NNE,15,0.0,2.0,96,0.00,,,0.04,26.000000,,2013-02-28 07:11:00,
2013-02-27 23:21:00,37.0,36.0,-100.00,NNE,15,0.0,2.0,96,0.00,,,0.04,26.000000,,2013-02-28 07:21:00,
2013-02-27 23:31:00,37.0,36.0,-100.00,NNE,15,0.0,2.0,96,0.00,,,0.04,26.000000,,2013-02-28 07:31:00,